AGROMETEOROLOŠKI PORTAL

vinorodna pokrajina

Temelj dobrega kmetovanja

Pregled podatkov za lokacijo Kozana, meteorološka postaja 863701

Pregled senzorjev na lokaciji

ID Ime Zadnja
vrednost
Datum in čas
meritve
(lokalni čas)
Tip
senzorja
4188 Omočenost lista (1,5 m) (U) 1 U 30.9.2022 12:00 A730WET
5085 Padavine (mm) 0 mm 30.9.2022 12:00 Generic 0.2 mm
4187 Relativna zračna vlaga (2 m) (%RH) 85 %RH 30.9.2022 12:00 50YA
4186 Temperatura (2 m) (°C) 17,4 °C 30.9.2022 12:00 50YA
5098 Hitrost vetra (3 m) (km/h) 6 km/h 30.9.2022 12:00 Generic 200 km/h

Pregled podatkov zadnjih 24 ur

Zap.
št.
Datum in čas
(lokalni čas)
Kozana
Omočenost
lista
(1,5
m)
Padavine Relativna
zračna
vlaga
(2
m)
Temperatura
(2
m)
Hitrost
vetra
(3
m)
1 30.9.2022 12:00 1 0 85,4 17,4 5,9
2 30.9.2022 11:30 0 0 88,3 16,3 6,9
3 30.9.2022 11:00 0 0 89,9 15,5 7,3
4 30.9.2022 10:30 0 0 91 15 7,7
5 30.9.2022 10:00 0 0 93,6 14,3 8,3
6 30.9.2022 09:30 0 0 96,3 13,8 8
7 30.9.2022 09:00 10 0,8 92,9 13,5 6,6
8 30.9.2022 08:30 0 0 88,8 13,8 5,6
9 30.9.2022 08:00 0 0 90,6 13,4 8,2
10 30.9.2022 07:30 0 0 92 13,2 8,3
11 30.9.2022 07:00 0 0 92,7 13,2 8,9
12 30.9.2022 06:30 0 0 94,8 13,1 8,2
13 30.9.2022 06:00 0 0 96,1 13,1 5,7
14 30.9.2022 05:30 0 0 97,3 13 3,3
15 30.9.2022 05:00 0 0 98,8 12,8 4,5
16 30.9.2022 04:30 1 0 99,9 12,4 4,9
17 30.9.2022 04:00 1 0 100 12,3 8,8
18 30.9.2022 03:30 1 0 100 12,7 9
19 30.9.2022 03:00 1 0 100 12,8 7,9
20 30.9.2022 02:30 8 0,2 100 12,8 7,5
21 30.9.2022 02:00 9 0 100 12,8 8,1
22 30.9.2022 01:30 6 0,2 100 12,9 10,4
23 30.9.2022 01:00 8 0 100 12,9 10,9
24 30.9.2022 00:30 7 1,2 100 12,9 12,6
25 30.9.2022 00:00 9 9 100 13,3 7,7
26 29.9.2022 23:30 9 15 94,9 14 7,3
27 29.9.2022 23:00 0 0 88,3 14,7 7,4
28 29.9.2022 22:30 0 0 89,1 14,5 8,2
29 29.9.2022 22:00 0 0 89,6 14,3 5,6
30 29.9.2022 21:30 2 0 90,6 14,1 11,8
31 29.9.2022 21:00 3 0 93,6 13,7 12,1
32 29.9.2022 20:30 1 0 98,1 13,8 8,9
33 29.9.2022 20:00 3 0 99 13,8 6,2
34 29.9.2022 19:30 2 0 99,8 13,6 10,3
35 29.9.2022 19:00 8 11 98,4 13,4 6,7
36 29.9.2022 18:30 10 0,6 96,9 14,9 8,1
37 29.9.2022 18:00 10 5,4 92,8 15,7 5,1
38 29.9.2022 17:30 0 0 80,5 17 5,8
39 29.9.2022 17:00 0 0 80,1 17,3 8,7
40 29.9.2022 16:30 0 0 74,6 19,2 5,8
41 29.9.2022 16:00 0 0 73,4 19,7 3,2
42 29.9.2022 15:30 0 0 79,6 18,4 4
43 29.9.2022 15:00 4 0 82,2 16,7 9
44 29.9.2022 14:30 2 0 79,2 19,6 4,9
45 29.9.2022 14:00 4 0 84,6 18,4 5,5
46 29.9.2022 13:30 0 0 82 18,7 7,5